Time;durP1;ratioP1;P1;durP2;ratioP2;P2;SDS_P1;SDS_P2;PMS_P1;PMS_P2;Temp;Humidity;BMP_temperature;BMP_pressure;BME280_temperature;BME280_humidity;BME280_pressure;Samples;Min_cycle;Max_cycle;Signal;HPM_P1;HPM_P2
2022/02/12 00:00:22;;;;;;;;;;;;;;;;;;5094051;28;20349;-53
2022/02/12 00:02:49;;;;;;;;;;;;;;;;;;5093943;28;19943;-51
2022/02/12 00:05:16;;;;;;;;;;;;;;;;;;5093873;28;19965;-53
2022/02/12 00:07:42;;;;;;;;;;;;;;;;;;5093826;28;20243;-53
2022/02/12 00:10:08;;;;;;;;;;;;;;;;;;5093722;28;19915;-55
2022/02/12 00:12:34;;;;;;;;;;;;;;;;;;5093181;28;20292;-55
2022/02/12 00:15:00;;;;;;;;;;;;;;;;;;5093684;28;19910;-55
2022/02/12 00:17:26;;;;;;;;;;;;;;;;;;5093847;28;19912;-51
2022/02/12 00:19:52;;;;;;;;;;;;;;;;;;5093393;28;19904;-52
2022/02/12 00:22:17;;;;;;;;;;;;;;;;;;5093810;28;19904;-54
2022/02/12 00:24:43;;;;;;;;;;;;;;;;;;5093776;28;19919;-53
2022/02/12 00:27:09;;;;;;;;;;;;;;;;;;5094199;28;19947;-52
2022/02/12 00:29:35;;;;;;;;;;;;;;;;;;5093009;28;19912;-54
2022/02/12 00:32:01;;;;;;;;;;;;;;;;;;5093313;28;19912;-55
2022/02/12 00:34:27;;;;;;;;;;;;;;;;;;5093708;28;19957;-54
2022/02/12 00:36:53;;;;;;;;;;;;;;;;;;5093655;28;19904;-54
2022/02/12 00:39:18;;;;;;;;;;;;;;;;;;5093001;28;19938;-55
2022/02/12 00:41:44;;;;;;;;;;;;;;;;;;5093455;28;20268;-55
2022/02/12 00:44:10;;;;;;;;;;;;;;;;;;5093487;28;19904;-52
2022/02/12 00:46:36;;;;;;;;;;;;;;;;;;5093086;28;19955;-52
2022/02/12 00:49:03;;;;;;;;;;;;;;;;;;5092939;28;19911;-53
2022/02/12 00:51:29;;;;;;;;;;;;;;;;;;5093115;28;19916;-53
2022/02/12 00:53:55;;;;;;;;;;;;;;;;;;5093299;28;19958;-55
2022/02/12 00:56:21;;;;;;;;;;;;;;;;;;5093260;28;19904;-55
2022/02/12 00:58:47;;;;;;;;;;;;;;;;;;5092667;28;19904;-51
2022/02/12 01:01:13;;;;;;;;;;;;;;;;;;5092461;28;19904;-55
2022/02/12 01:03:39;;;;;;;;;;;;;;;;;;5093401;28;19991;-55
2022/02/12 01:06:05;;;;;;;;;;;;;;;;;;5093048;28;19908;-53
2022/02/12 01:08:31;;;;;;;;;;;;;;;;;;5092526;28;19904;-55
2022/02/12 01:10:57;;;;;;;;;;;;;;;;;;5092842;28;20270;-54
2022/02/12 01:13:22;;;;;;;;;;;;;;;;;;5092748;28;19904;-55
2022/02/12 01:15:48;;;;;;;;;;;;;;;;;;5092786;28;19908;-56
2022/02/12 01:18:14;;;;;;;;;;;;;;;;;;5092357;28;20396;-56
2022/02/12 01:20:40;;;;;;;;;;;;;;;;;;5092938;28;20004;-53
2022/02/12 01:23:06;;;;;;;;;;;;;;;;;;5092652;28;19904;-53
2022/02/12 01:25:32;;;;;;;;;;;;;;;;;;5092449;28;19910;-53
2022/02/12 01:27:58;;;;;;;;;;;;;;;;;;5092127;28;20365;-52
2022/02/12 01:30:24;;;;;;;;;;;;;;;;;;5092408;28;19912;-53
2022/02/12 01:32:50;;;;;;;;;;;;;;;;;;5092874;28;19904;-54
2022/02/12 01:35:16;;;;;;;;;;;;;;;;;;5092828;28;19987;-54
2022/02/12 01:37:42;;;;;;;;;;;;;;;;;;5092360;28;19923;-55
2022/02/12 01:40:08;;;;;;;;;;;;;;;;;;5092320;28;20222;-53
2022/02/12 01:42:34;;;;;;;;;;;;;;;;;;5092565;28;19926;-55
2022/02/12 01:45:03;;;;;;;;;;;;;;;;;;5092391;28;19907;-56
2022/02/12 01:47:28;;;;;;;;;;;;;;;;;;5092605;28;19908;-55
2022/02/12 01:49:54;;;;;;;;;;;;;;;;;;5091756;28;19923;-55
2022/02/12 01:52:20;;;;;;;;;;;;;;;;;;5092361;28;19912;-55
2022/02/12 01:54:46;;;;;;;;;;;;;;;;;;5092438;28;19904;-55
2022/02/12 01:57:12;;;;;;;;;;;;;;;;;;5092456;28;19911;-54
2022/02/12 01:59:40;;;;;;;;;;;;;;;;;;5091908;28;20007;-53
2022/02/12 02:02:06;;;;;;;;;;;;;;;;;;5092330;28;19904;-54
2022/02/12 02:04:31;;;;;;;;;;;;;;;;;;5092475;28;19904;-55
2022/02/12 02:06:57;;;;;;;;;;;;;;;;;;5092197;28;19923;-53
2022/02/12 02:09:23;;;;;;;;;;;;;;;;;;5092006;28;19904;-55
2022/02/12 02:11:49;;;;;;;;;;;;;;;;;;5091977;28;20285;-52
2022/02/12 02:14:15;;;;;;;;;;;;;;;;;;5092216;28;19943;-52
2022/02/12 02:16:41;;;;;;;;;;;;;;;;;;5092350;28;19915;-55
2022/02/12 02:19:07;;;;;;;;;;;;;;;;;;5091779;28;19911;-55
2022/02/12 02:21:32;;;;;;;;;;;;;;;;;;5092243;28;19911;-52
2022/02/12 02:23:58;;;;;;;;;;;;;;;;;;5092109;28;19999;-54
2022/02/12 02:26:24;;;;;;;;;;;;;;;;;;5090759;28;19904;-54
2022/02/12 02:28:50;;;;;;;;;;;;;;;;;;5091430;28;19908;-56
2022/02/12 02:31:16;;;;;;;;;;;;;;;;;;5092225;28;19912;-55
2022/02/12 02:33:42;;;;;;;;;;;;;;;;;;5092288;28;20245;-53
2022/02/12 02:36:08;;;;;;;;;;;;;;;;;;5092790;28;19924;-54
2022/02/12 02:38:34;;;;;;;;;;;;;;;;;;5095165;28;19911;-55
2022/02/12 02:41:00;;;;;;;;;;;;;;;;;;5095730;28;20410;-55
2022/02/12 02:43:27;;;;;;;;;;;;;;;;;;5095538;28;19930;-52
2022/02/12 02:45:53;;;;;;;;;;;;;;;;;;5095717;28;19911;-55
2022/02/12 02:48:18;;;;;;;;;;;;;;;;;;5095127;28;19904;-55
2022/02/12 02:56:14;;;;;;;;;;;;;;;;;;5095474;28;19962;-55
2022/02/12 02:58:40;;;;;;;;;;;;;;;;;;5094819;28;20353;-51
2022/02/12 03:01:06;;;;;;;;;;;;;;;;;;5095315;28;19904;-55
2022/02/12 03:03:32;;;;;;;;;;;;;;;;;;5095292;28;19911;-55
2022/02/12 03:05:58;;;;;;;;;;;;;;;;;;5095180;28;19908;-52
2022/02/12 03:08:23;;;;;;;;;;;;;;;;;;5094267;28;19979;-56
2022/02/12 03:10:49;;;;;;;;;;;;;;;;;;5095183;28;20312;-55
2022/02/12 03:13:15;;;;;;;;;;;;;;;;;;5093285;28;19944;-52
2022/02/12 03:15:41;;;;;;;;;;;;;;;;;;5095118;28;20247;-53
2022/02/12 03:18:07;;;;;;;;;;;;;;;;;;5094435;28;19904;-55
2022/02/12 03:20:33;;;;;;;;;;;;;;;;;;5094955;28;20008;-56
2022/02/12 03:22:59;;;;;;;;;;;;;;;;;;5094764;28;19954;-52
2022/02/12 03:25:25;;;;;;;;;;;;;;;;;;5094847;28;20016;-51
2022/02/12 03:27:51;;;;;;;;;;;;;;;;;;5094345;28;19983;-55
2022/02/12 03:30:16;;;;;;;;;;;;;;;;;;5094937;28;20377;-53
2022/02/12 03:32:42;;;;;;;;;;;;;;;;;;5094772;28;19997;-55
2022/02/12 03:35:08;;;;;;;;;;;;;;;;;;5094476;28;19916;-51
2022/02/12 03:37:34;;;;;;;;;;;;;;;;;;5094590;28;19949;-55
2022/02/12 03:40:00;;;;;;;;;;;;;;;;;;5093961;28;19927;-55
2022/02/12 03:42:26;;;;;;;;;;;;;;;;;;5094666;28;19998;-56
2022/02/12 03:44:52;;;;;;;;;;;;;;;;;;5094693;28;20149;-54
2022/02/12 03:47:18;;;;;;;;;;;;;;;;;;5094478;28;19931;-52
2022/02/12 03:49:44;;;;;;;;;;;;;;;;;;5093750;28;19904;-54
2022/02/12 03:52:10;;;;;;;;;;;;;;;;;;5093985;28;20044;-56
2022/02/12 03:54:36;;;;;;;;;;;;;;;;;;5094490;28;19904;-56
2022/02/12 03:57:01;;;;;;;;;;;;;;;;;;5094248;28;20273;-54
2022/02/12 03:59:27;;;;;;;;;;;;;;;;;;5093709;28;19965;-56
2022/02/12 04:01:53;;;;;;;;;;;;;;;;;;5094231;28;19904;-54
2022/02/12 04:04:19;;;;;;;;;;;;;;;;;;5093988;28;19926;-55
2022/02/12 04:06:45;;;;;;;;;;;;;;;;;;5094244;28;20420;-55
2022/02/12 04:09:11;;;;;;;;;;;;;;;;;;5093620;28;19904;-53
2022/02/12 04:11:36;;;;;;;;;;;;;;;;;;5093857;28;20003;-56
2022/02/12 04:14:02;;;;;;;;;;;;;;;;;;5093854;28;19911;-54
2022/02/12 04:16:28;;;;;;;;;;;;;;;;;;5094061;28;19971;-55
2022/02/12 04:18:54;;;;;;;;;;;;;;;;;;5093111;28;20349;-58
2022/02/12 04:21:20;;;;;;;;;;;;;;;;;;5093685;28;20038;-53
2022/02/12 04:23:46;;;;;;;;;;;;;;;;;;5094192;28;19904;-55
2022/02/12 04:26:12;;;;;;;;;;;;;;;;;;5093651;28;19912;-55
2022/02/12 04:28:38;;;;;;;;;;;;;;;;;;5093444;28;19947;-54
2022/02/12 04:31:04;;;;;;;;;;;;;;;;;;5088558;28;20434;-55
2022/02/12 04:33:30;;;;;;;;;;;;;;;;;;5093981;28;19911;-54
2022/02/12 04:35:56;;;;;;;;;;;;;;;;;;5093155;28;20337;-56
2022/02/12 04:38:22;;;;;;;;;;;;;;;;;;5092806;28;19944;-54
2022/02/12 04:40:48;;;;;;;;;;;;;;;;;;5093424;28;19907;-56
2022/02/12 04:43:13;;;;;;;;;;;;;;;;;;5093430;28;19984;-53
2022/02/12 04:45:39;;;;;;;;;;;;;;;;;;5092169;28;19904;-55
2022/02/12 04:48:05;;;;;;;;;;;;;;;;;;5092358;28;20269;-53
2022/02/12 04:50:31;;;;;;;;;;;;;;;;;;5091270;28;19916;-55
2022/02/12 04:52:57;;;;;;;;;;;;;;;;;;5092484;28;19908;-56
2022/02/12 04:55:24;;;;;;;;;;;;;;;;;;5086727;28;20015;-55
2022/02/12 04:57:50;;;;;;;;;;;;;;;;;;5082163;28;19908;-54
2022/02/12 05:00:16;;;;;;;;;;;;;;;;;;5093095;28;19911;-52
2022/02/12 05:02:42;;;;;;;;;;;;;;;;;;5092905;28;19904;-54
2022/02/12 05:05:07;;;;;;;;;;;;;;;;;;5092927;28;20320;-51
2022/02/12 05:07:33;;;;;;;;;;;;;;;;;;5092287;28;19904;-56
2022/02/12 05:09:59;;;;;;;;;;;;;;;;;;5092466;28;19953;-56
2022/02/12 05:12:25;;;;;;;;;;;;;;;;;;5092782;28;20272;-55
2022/02/12 05:14:51;;;;;;;;;;;;;;;;;;5092924;28;20417;-56
2022/02/12 05:17:17;;;;;;;;;;;;;;;;;;5081387;28;19998;-54
2022/02/12 05:19:43;;;;;;;;;;;;;;;;;;5092051;28;20361;-56
2022/02/12 05:22:09;;;;;;;;;;;;;;;;;;5092858;28;19904;-51
2022/02/12 05:24:34;;;;;;;;;;;;;;;;;;5084118;28;20298;-52
2022/02/12 05:27:00;;;;;;;;;;;;;;;;;;5072714;28;19946;-52
2022/02/12 05:29:26;;;;;;;;;;;;;;;;;;5072418;28;19904;-51
2022/02/12 05:31:52;;;;;;;;;;;;;;;;;;5072244;28;20373;-55
2022/02/12 05:34:19;;;;;;;;;;;;;;;;;;5072228;28;19991;-52
2022/02/12 05:36:45;;;;;;;;;;;;;;;;;;5073725;28;19905;-55
2022/02/12 05:39:12;;;;;;;;;;;;;;;;;;5092203;28;20373;-52
2022/02/12 05:41:37;;;;;;;;;;;;;;;;;;5092550;28;19912;-55
2022/02/12 05:44:03;;;;;;;;;;;;;;;;;;5092461;28;20053;-53
2022/02/12 05:46:29;;;;;;;;;;;;;;;;;;5092538;28;19912;-55
2022/02/12 05:48:55;;;;;;;;;;;;;;;;;;5092318;28;19965;-55
2022/02/12 05:51:22;;;;;;;;;;;;;;;;;;5081918;28;19916;-55
2022/02/12 05:53:48;;;;;;;;;;;;;;;;;;5087982;28;19908;-56
2022/02/12 05:56:14;;;;;;;;;;;;;;;;;;5112830;28;19904;-53
2022/02/12 05:58:40;;;;;;;;;;;;;;;;;;5111839;28;19904;-55
2022/02/12 06:01:06;;;;;;;;;;;;;;;;;;5111311;28;20360;-54
2022/02/12 06:03:32;;;;;;;;;;;;;;;;;;5072218;28;19904;-55
2022/02/12 06:05:57;;;;;;;;;;;;;;;;;;5086611;28;19908;-56
2022/02/12 06:08:23;;;;;;;;;;;;;;;;;;5091767;28;19922;-53
2022/02/12 06:10:50;;;;;;;;;;;;;;;;;;5092694;28;20348;-56
2022/02/12 06:13:16;;;;;;;;;;;;;;;;;;5096058;28;20276;-55
2022/02/12 06:15:42;;;;;;;;;;;;;;;;;;5095622;28;19915;-55
2022/02/12 06:18:08;;;;;;;;;;;;;;;;;;5095834;28;19904;-56
2022/02/12 06:20:34;;;;;;;;;;;;;;;;;;5096584;28;19947;-55
2022/02/12 06:23:00;;;;;;;;;;;;;;;;;;5095533;28;19915;-54
2022/02/12 06:25:25;;;;;;;;;;;;;;;;;;5096147;28;19910;-56
2022/02/12 06:27:51;;;;;;;;;;;;;;;;;;5095584;28;20265;-55
2022/02/12 06:30:17;;;;;;;;;;;;;;;;;;5095642;28;20054;-53
2022/02/12 06:32:43;;;;;;;;;;;;;;;;;;5090831;28;19908;-56
2022/02/12 06:35:09;;;;;;;;;;;;;;;;;;5075692;28;19913;-55
2022/02/12 06:37:35;;;;;;;;;;;;;;;;;;5075825;28;19904;-54
2022/02/12 06:40:01;;;;;;;;;;;;;;;;;;5074990;28;19924;-55
2022/02/12 06:42:27;;;;;;;;;;;;;;;;;;5075257;28;19988;-54
2022/02/12 06:44:52;;;;;;;;;;;;;;;;;;5075106;28;19904;-56
2022/02/12 06:47:18;;;;;;;;;;;;;;;;;;5075789;28;19958;-55
2022/02/12 06:49:44;;;;;;;;;;;;;;;;;;5075869;28;19955;-56
2022/02/12 06:52:10;;;;;;;;;;;;;;;;;;5075415;28;19981;-55
2022/02/12 06:54:36;;;;;;;;;;;;;;;;;;5104637;28;20306;-51
2022/02/12 06:57:02;;;;;;;;;;;;;;;;;;5116141;28;19904;-55
2022/02/12 06:59:28;;;;;;;;;;;;;;;;;;5114990;28;19950;-55
2022/02/12 07:01:53;;;;;;;;;;;;;;;;;;5088685;28;19912;-54
2022/02/12 07:04:19;;;;;;;;;;;;;;;;;;5075928;28;19908;-56
2022/02/12 07:06:45;;;;;;;;;;;;;;;;;;5095402;28;19910;-56
2022/02/12 07:09:11;;;;;;;;;;;;;;;;;;5094647;28;20038;-53
2022/02/12 07:11:37;;;;;;;;;;;;;;;;;;5093763;28;19912;-54
2022/02/12 07:14:03;;;;;;;;;;;;;;;;;;5094479;28;20327;-54
2022/02/12 07:16:29;;;;;;;;;;;;;;;;;;5095270;28;19999;-56
2022/02/12 07:18:55;;;;;;;;;;;;;;;;;;5083605;28;19912;-56
2022/02/12 07:21:20;;;;;;;;;;;;;;;;;;5094855;28;19908;-55
2022/02/12 07:23:46;;;;;;;;;;;;;;;;;;5091191;28;20363;-56
2022/02/12 07:26:12;;;;;;;;;;;;;;;;;;5091489;28;19915;-56
2022/02/12 07:28:42;;;;;;;;;;;;;;;;;;5089364;28;19944;-55
2022/02/12 07:31:08;;;;;;;;;;;;;;;;;;5081445;28;20357;-56
2022/02/12 07:33:34;;;;;;;;;;;;;;;;;;5095099;28;19904;-54
2022/02/12 07:36:00;;;;;;;;;;;;;;;;;;5094746;28;19911;-54
2022/02/12 07:38:25;;;;;;;;;;;;;;;;;;5094176;28;20388;-55
2022/02/12 07:40:51;;;;;;;;;;;;;;;;;;5083714;28;19914;-51
2022/02/12 07:43:17;;;;;;;;;;;;;;;;;;5073208;28;19912;-56
2022/02/12 07:45:43;;;;;;;;;;;;;;;;;;5074359;28;20300;-55
2022/02/12 07:48:09;;;;;;;;;;;;;;;;;;5073908;28;19991;-55
2022/02/12 07:50:35;;;;;;;;;;;;;;;;;;5074274;28;19919;-56
2022/02/12 07:53:01;;;;;;;;;;;;;;;;;;5076909;28;20304;-55
2022/02/12 07:55:30;;;;;;;;;;;;;;;;;;5098583;28;19912;-53
2022/02/12 07:57:56;;;;;;;;;;;;;;;;;;5093122;28;20003;-56
2022/02/12 08:00:22;;;;;;;;;;;;;;;;;;5094600;28;20003;-54
2022/02/12 08:02:49;;;;;;;;;;;;;;;;;;5094359;28;19907;-55
2022/02/12 08:05:15;;;;;;;;;;;;;;;;;;5094252;28;19904;-56
2022/02/12 08:07:40;;;;;;;;;;;;;;;;;;5094222;28;19949;-54
2022/02/12 08:12:51;;;;;;;;;;;;;;;;;;5093936;28;19919;-54
2022/02/12 08:15:17;;;;;;;;;;;;;;;;;;5094144;28;19904;-55
2022/02/12 08:17:42;;;;;;;;;;;;;;;;;;5093661;28;19987;-53
2022/02/12 08:20:09;;;;;;;;;;;;;;;;;;5093585;28;20011;-55
2022/02/12 08:22:34;;;;;;;;;;;;;;;;;;5090446;28;20317;-53
2022/02/12 08:25:00;;;;;;;;;;;;;;;;;;5073398;28;19952;-53
2022/02/12 08:27:28;;;;;;;;;;;;;;;;;;5073501;28;20385;-55
2022/02/12 08:29:54;;;;;;;;;;;;;;;;;;5072858;28;19905;-56
2022/02/12 08:32:21;;;;;;;;;;;;;;;;;;5073320;28;20353;-54
2022/02/12 08:34:47;;;;;;;;;;;;;;;;;;5072573;28;19958;-56
2022/02/12 08:37:13;;;;;;;;;;;;;;;;;;5079940;28;20247;-55
2022/02/12 08:39:39;;;;;;;;;;;;;;;;;;5092780;28;19915;-55
2022/02/12 08:42:05;;;;;;;;;;;;;;;;;;5093854;28;19904;-56
2022/02/12 08:44:30;;;;;;;;;;;;;;;;;;5086263;28;19930;-54
2022/02/12 08:46:56;;;;;;;;;;;;;;;;;;5086868;28;19911;-54
2022/02/12 08:49:22;;;;;;;;;;;;;;;;;;5096544;28;20007;-55
2022/02/12 08:51:48;;;;;;;;;;;;;;;;;;5113521;28;19919;-54
2022/02/12 08:54:14;;;;;;;;;;;;;;;;;;5098970;28;19911;-54
2022/02/12 08:56:40;;;;;;;;;;;;;;;;;;5084160;28;19970;-56
2022/02/12 08:59:06;;;;;;;;;;;;;;;;;;5078791;28;19914;-56
2022/02/12 09:01:31;;;;;;;;;;;;;;;;;;5087867;28;19943;-55
2022/02/12 09:03:57;;;;;;;;;;;;;;;;;;5074750;28;19965;-54
2022/02/12 09:06:23;;;;;;;;;;;;;;;;;;5090156;28;19908;-55
2022/02/12 09:08:51;;;;;;;;;;;;;;;;;;5078518;28;20030;-54
2022/02/12 09:11:17;;;;;;;;;;;;;;;;;;5077461;28;20061;-55
2022/02/12 09:13:43;;;;;;;;;;;;;;;;;;5076845;28;20022;-55
2022/02/12 09:16:08;;;;;;;;;;;;;;;;;;5075119;28;19908;-56
2022/02/12 09:18:34;;;;;;;;;;;;;;;;;;5069649;28;19970;-56
2022/02/12 09:21:00;;;;;;;;;;;;;;;;;;5070544;28;20362;-56
2022/02/12 09:23:28;;;;;;;;;;;;;;;;;;5070771;28;19955;-53
2022/02/12 09:25:54;;;;;;;;;;;;;;;;;;5070774;28;19904;-51
2022/02/12 09:28:20;;;;;;;;;;;;;;;;;;5070223;28;20380;-56
2022/02/12 09:30:45;;;;;;;;;;;;;;;;;;5090403;28;19915;-55
2022/02/12 09:33:11;;;;;;;;;;;;;;;;;;5093105;28;20042;-56
2022/02/12 09:35:37;;;;;;;;;;;;;;;;;;5093301;28;19923;-53
2022/02/12 09:38:03;;;;;;;;;;;;;;;;;;5091993;28;19990;-55
2022/02/12 09:40:30;;;;;;;;;;;;;;;;;;5092920;28;19926;-55
2022/02/12 09:42:56;;;;;;;;;;;;;;;;;;5090738;28;19943;-54
2022/02/12 09:45:22;;;;;;;;;;;;;;;;;;5074054;28;19955;-51
2022/02/12 09:47:48;;;;;;;;;;;;;;;;;;5075848;28;20258;-56
2022/02/12 09:50:14;;;;;;;;;;;;;;;;;;5076542;28;20215;-55
2022/02/12 09:52:45;;;;;;;;;;;;;;;;;;5076611;28;20302;-54
2022/02/12 09:55:11;;;;;;;;;;;;;;;;;;5115981;28;19903;-55
2022/02/12 09:57:37;;;;;;;;;;;;;;;;;;5105920;28;19912;-53
2022/02/12 10:00:04;;;;;;;;;;;;;;;;;;5076100;28;20350;-53
2022/02/12 10:02:30;;;;;;;;;;;;;;;;;;5076236;28;19912;-55
2022/02/12 10:04:55;;;;;;;;;;;;;;;;;;5077148;28;19909;-51
2022/02/12 10:07:21;;;;;;;;;;;;;;;;;;5076551;28;19944;-54
2022/02/12 10:09:47;;;;;;;;;;;;;;;;;;5075973;28;19904;-54
2022/02/12 10:12:13;;;;;;;;;;;;;;;;;;5076471;28;20342;-55
2022/02/12 10:14:39;;;;;;;;;;;;;;;;;;5076271;28;19904;-53
2022/02/12 10:17:06;;;;;;;;;;;;;;;;;;5076086;28;20042;-54
2022/02/12 10:19:32;;;;;;;;;;;;;;;;;;5075162;28;19912;-56
2022/02/12 10:21:57;;;;;;;;;;;;;;;;;;5076380;28;19904;-55
2022/02/12 10:24:24;;;;;;;;;;;;;;;;;;5076109;28;19904;-55
2022/02/12 10:26:50;;;;;;;;;;;;;;;;;;5086093;28;19958;-53
2022/02/12 10:29:15;;;;;;;;;;;;;;;;;;5080857;28;19935;-56
2022/02/12 10:31:41;;;;;;;;;;;;;;;;;;5075627;28;19936;-56
2022/02/12 10:34:07;;;;;;;;;;;;;;;;;;5075338;28;19908;-55
2022/02/12 10:36:33;;;;;;;;;;;;;;;;;;5075913;28;19911;-56
2022/02/12 10:38:59;;;;;;;;;;;;;;;;;;5075126;28;19911;-54
2022/02/12 10:41:26;;;;;;;;;;;;;;;;;;5088839;28;19921;-54
2022/02/12 10:43:56;;;;;;;;;;;;;;;;;;5095893;28;19904;-54
2022/02/12 10:46:22;;;;;;;;;;;;;;;;;;5095768;28;19904;-55
2022/02/12 10:48:48;;;;;;;;;;;;;;;;;;5094778;28;19915;-53
2022/02/12 10:51:17;;;;;;;;;;;;;;;;;;5095704;28;19912;-54
2022/02/12 10:53:43;;;;;;;;;;;;;;;;;;5102795;28;19908;-51
2022/02/12 10:56:08;;;;;;;;;;;;;;;;;;5098128;28;20258;-55
2022/02/12 10:58:35;;;;;;;;;;;;;;;;;;5094138;28;19911;-54
2022/02/12 11:01:00;;;;;;;;;;;;;;;;;;5095155;28;20368;-55
2022/02/12 11:03:26;;;;;;;;;;;;;;;;;;5078731;28;19912;-56
2022/02/12 11:05:52;;;;;;;;;;;;;;;;;;5088789;28;19911;-55
2022/02/12 11:08:18;;;;;;;;;;;;;;;;;;5094834;28;20276;-52
2022/02/12 11:10:44;;;;;;;;;;;;;;;;;;5095347;28;20023;-53
2022/02/12 11:13:10;;;;;;;;;;;;;;;;;;5095095;28;19904;-56
2022/02/12 11:15:36;;;;;;;;;;;;;;;;;;5095156;28;19955;-52
2022/02/12 11:18:01;;;;;;;;;;;;;;;;;;5090866;28;20409;-54
2022/02/12 11:20:28;;;;;;;;;;;;;;;;;;5074792;28;19943;-56
2022/02/12 11:22:56;;;;;;;;;;;;;;;;;;5074782;28;20290;-53
2022/02/12 11:25:21;;;;;;;;;;;;;;;;;;5074758;28;19950;-54
2022/02/12 11:27:47;;;;;;;;;;;;;;;;;;5074364;28;19908;-55
2022/02/12 11:30:14;;;;;;;;;;;;;;;;;;5075528;28;19999;-55
2022/02/12 11:32:40;;;;;;;;;;;;;;;;;;5094995;28;20334;-54
2022/02/12 11:35:09;;;;;;;;;;;;;;;;;;5094799;28;19991;-49
2022/02/12 11:37:36;;;;;;;;;;;;;;;;;;5094727;28;20281;-53
2022/02/12 11:40:02;;;;;;;;;;;;;;;;;;5094129;28;19911;-52
2022/02/12 11:42:28;;;;;;;;;;;;;;;;;;5094591;28;19904;-54
2022/02/12 11:44:53;;;;;;;;;;;;;;;;;;5089480;28;20301;-55
2022/02/12 11:47:20;;;;;;;;;;;;;;;;;;5074405;28;19951;-56
2022/02/12 11:49:46;;;;;;;;;;;;;;;;;;5073830;28;19921;-55
2022/02/12 11:52:12;;;;;;;;;;;;;;;;;;5073965;28;20006;-55
2022/02/12 11:54:38;;;;;;;;;;;;;;;;;;5103846;28;20310;-54
2022/02/12 11:57:03;;;;;;;;;;;;;;;;;;5114708;28;19907;-54
2022/02/12 11:59:29;;;;;;;;;;;;;;;;;;5105007;28;19908;-54
2022/02/12 12:01:55;;;;;;;;;;;;;;;;;;5094334;28;20162;-54
2022/02/12 12:04:22;;;;;;;;;;;;;;;;;;5093951;28;19900;-55
2022/02/12 12:06:48;;;;;;;;;;;;;;;;;;5093998;28;19988;-53
2022/02/12 12:09:13;;;;;;;;;;;;;;;;;;5093569;28;19939;-55
2022/02/12 12:11:39;;;;;;;;;;;;;;;;;;5094045;28;19912;-54
2022/02/12 12:14:05;;;;;;;;;;;;;;;;;;5082016;28;19916;-55
2022/02/12 12:16:34;;;;;;;;;;;;;;;;;;5074396;28;19940;-51
2022/02/12 12:19:00;;;;;;;;;;;;;;;;;;5073393;28;19995;-53
2022/02/12 12:21:26;;;;;;;;;;;;;;;;;;5073737;28;20340;-56
2022/02/12 12:23:52;;;;;;;;;;;;;;;;;;5073296;28;20013;-55
2022/02/12 12:26:17;;;;;;;;;;;;;;;;;;5074600;28;20321;-54
2022/02/12 12:30:44;;;;;;;;;;;;;;;;;;5092931;28;19951;-54
2022/02/12 12:31:29;;;;;;;;;;;;;;;;;;5093799;28;20238;-55
2022/02/12 12:33:55;;;;;;;;;;;;;;;;;;5093674;28;19912;-57
2022/02/12 12:36:21;;;;;;;;;;;;;;;;;;5093677;28;20246;-54
2022/02/12 12:38:47;;;;;;;;;;;;;;;;;;5092922;28;19952;-55
2022/02/12 12:41:13;;;;;;;;;;;;;;;;;;5087262;28;19915;-54
2022/02/12 12:43:38;;;;;;;;;;;;;;;;;;5073232;28;20254;-56
2022/02/12 12:46:04;;;;;;;;;;;;;;;;;;5073441;28;19911;-56
2022/02/12 12:48:30;;;;;;;;;;;;;;;;;;5072560;28;19904;-52
2022/02/12 12:50:56;;;;;;;;;;;;;;;;;;5073162;28;20007;-56
2022/02/12 12:53:22;;;;;;;;;;;;;;;;;;5080874;28;20284;-55
2022/02/12 12:55:48;;;;;;;;;;;;;;;;;;5103693;28;19947;-53
2022/02/12 12:58:13;;;;;;;;;;;;;;;;;;5079581;28;19917;-55
2022/02/12 13:00:39;;;;;;;;;;;;;;;;;;5073152;28;19912;-56
2022/02/12 13:03:05;;;;;;;;;;;;;;;;;;5072890;28;19956;-54
2022/02/12 13:05:31;;;;;;;;;;;;;;;;;;5083439;28;20350;-52
2022/02/12 13:07:57;;;;;;;;;;;;;;;;;;5092292;28;19907;-56
2022/02/12 13:10:24;;;;;;;;;;;;;;;;;;5092534;28;20353;-56
2022/02/12 13:12:50;;;;;;;;;;;;;;;;;;5093005;28;19904;-55
2022/02/12 13:15:18;;;;;;;;;;;;;;;;;;5093095;28;19904;-56
2022/02/12 13:17:44;;;;;;;;;;;;;;;;;;5092986;28;20231;-53
2022/02/12 13:20:11;;;;;;;;;;;;;;;;;;5092415;28;19904;-56
2022/02/12 13:22:37;;;;;;;;;;;;;;;;;;5091904;28;19904;-54
2022/02/12 13:25:02;;;;;;;;;;;;;;;;;;5090675;28;20046;-55
2022/02/12 13:27:28;;;;;;;;;;;;;;;;;;5093064;28;20399;-57
2022/02/12 13:29:54;;;;;;;;;;;;;;;;;;5092161;28;19907;-57
2022/02/12 13:32:20;;;;;;;;;;;;;;;;;;5092798;28;19965;-52
2022/02/12 13:34:46;;;;;;;;;;;;;;;;;;5092813;28;20260;-54
2022/02/12 13:37:12;;;;;;;;;;;;;;;;;;5088974;28;20138;-54
2022/02/12 13:39:37;;;;;;;;;;;;;;;;;;5071547;28;19912;-56
2022/02/12 13:42:03;;;;;;;;;;;;;;;;;;5072315;28;20321;-55
2022/02/12 13:44:29;;;;;;;;;;;;;;;;;;5070613;28;20007;-55
2022/02/12 13:46:55;;;;;;;;;;;;;;;;;;5072582;28;19911;-56
2022/02/12 13:49:21;;;;;;;;;;;;;;;;;;5071739;28;20315;-55
2022/02/12 13:51:47;;;;;;;;;;;;;;;;;;5075350;28;19973;-56
2022/02/12 13:54:13;;;;;;;;;;;;;;;;;;5103513;28;19908;-56
2022/02/12 13:56:39;;;;;;;;;;;;;;;;;;5113034;28;19947;-56
2022/02/12 13:59:04;;;;;;;;;;;;;;;;;;5112308;28;20330;-56
2022/02/12 14:01:30;;;;;;;;;;;;;;;;;;5113031;28;19904;-55
2022/02/12 14:03:56;;;;;;;;;;;;;;;;;;5112829;28;20007;-56
2022/02/12 14:06:22;;;;;;;;;;;;;;;;;;5094204;28;19912;-56
2022/02/12 14:08:48;;;;;;;;;;;;;;;;;;5091437;28;20395;-56
2022/02/12 14:11:15;;;;;;;;;;;;;;;;;;5092756;28;19915;-54
2022/02/12 14:13:40;;;;;;;;;;;;;;;;;;5092149;28;20038;-57
2022/02/12 14:16:06;;;;;;;;;;;;;;;;;;5092516;28;20003;-53
2022/02/12 14:18:32;;;;;;;;;;;;;;;;;;5091563;28;19927;-55
2022/02/12 14:20:58;;;;;;;;;;;;;;;;;;5091715;28;19907;-54
2022/02/12 14:23:24;;;;;;;;;;;;;;;;;;5091989;28;19908;-53
2022/02/12 14:25:50;;;;;;;;;;;;;;;;;;5092062;28;19905;-54
2022/02/12 14:28:16;;;;;;;;;;;;;;;;;;5091695;28;19904;-53
2022/02/12 14:30:42;;;;;;;;;;;;;;;;;;5092237;28;19912;-51
2022/02/12 14:33:08;;;;;;;;;;;;;;;;;;5094377;28;19904;-54
2022/02/12 14:35:33;;;;;;;;;;;;;;;;;;5094581;28;19912;-53
2022/02/12 14:38:00;;;;;;;;;;;;;;;;;;5095629;28;20026;-52
2022/02/12 14:40:26;;;;;;;;;;;;;;;;;;5089176;28;19931;-52
2022/02/12 14:42:53;;;;;;;;;;;;;;;;;;5079103;28;19908;-54
2022/02/12 14:45:19;;;;;;;;;;;;;;;;;;5095873;28;19908;-53
2022/02/12 14:47:45;;;;;;;;;;;;;;;;;;5095601;28;19904;-55
2022/02/12 14:50:11;;;;;;;;;;;;;;;;;;5095097;28;19911;-56
2022/02/12 14:52:37;;;;;;;;;;;;;;;;;;5095736;28;19912;-55
2022/02/12 14:55:02;;;;;;;;;;;;;;;;;;5113786;28;19914;-56
2022/02/12 14:57:28;;;;;;;;;;;;;;;;;;5108986;28;20375;-56
2022/02/12 14:59:54;;;;;;;;;;;;;;;;;;5094950;28;19904;-56
2022/02/12 15:02:21;;;;;;;;;;;;;;;;;;5095453;28;19954;-54
2022/02/12 15:04:47;;;;;;;;;;;;;;;;;;5095197;28;19908;-56
2022/02/12 15:07:13;;;;;;;;;;;;;;;;;;5095219;28;19914;-53
2022/02/12 15:09:39;;;;;;;;;;;;;;;;;;5094641;28;19911;-54
2022/02/12 15:12:05;;;;;;;;;;;;;;;;;;5091006;28;20254;-57
2022/02/12 15:14:31;;;;;;;;;;;;;;;;;;5075022;28;19950;-56
2022/02/12 15:16:57;;;;;;;;;;;;;;;;;;5079235;28;19912;-56
2022/02/12 15:19:22;;;;;;;;;;;;;;;;;;5094359;28;20301;-55
2022/02/12 15:21:48;;;;;;;;;;;;;;;;;;5095292;28;19904;-55
2022/02/12 15:24:14;;;;;;;;;;;;;;;;;;5095304;28;19910;-57
2022/02/12 15:26:41;;;;;;;;;;;;;;;;;;5087363;28;20304;-51
2022/02/12 15:29:06;;;;;;;;;;;;;;;;;;5074240;28;19915;-56
2022/02/12 15:31:32;;;;;;;;;;;;;;;;;;5074443;28;19912;-57
2022/02/12 15:33:58;;;;;;;;;;;;;;;;;;5074610;28;20284;-57
2022/02/12 15:36:24;;;;;;;;;;;;;;;;;;5075083;28;20012;-54
2022/02/12 15:38:50;;;;;;;;;;;;;;;;;;5079713;28;19908;-55
2022/02/12 15:41:16;;;;;;;;;;;;;;;;;;5094724;28;20010;-55
2022/02/12 15:43:42;;;;;;;;;;;;;;;;;;5094456;28;19904;-54
2022/02/12 15:46:08;;;;;;;;;;;;;;;;;;5094691;28;20077;-55
2022/02/12 15:48:33;;;;;;;;;;;;;;;;;;5094004;28;19919;-55
2022/02/12 15:51:00;;;;;;;;;;;;;;;;;;5093702;28;20139;-52
2022/02/12 15:53:27;;;;;;;;;;;;;;;;;;5099246;28;19914;-52
2022/02/12 15:55:54;;;;;;;;;;;;;;;;;;5114808;28;19903;-55
2022/02/12 15:58:20;;;;;;;;;;;;;;;;;;5074023;28;20316;-56
2022/02/12 16:00:46;;;;;;;;;;;;;;;;;;5074198;28;19962;-53
2022/02/12 16:03:12;;;;;;;;;;;;;;;;;;5073890;28;19905;-50
2022/02/12 16:05:38;;;;;;;;;;;;;;;;;;5085755;28;20002;-53
2022/02/12 16:08:04;;;;;;;;;;;;;;;;;;5093191;28;19907;-53
2022/02/12 16:10:31;;;;;;;;;;;;;;;;;;5094475;28;20027;-53
2022/02/12 16:12:58;;;;;;;;;;;;;;;;;;5093920;28;19911;-56
2022/02/12 16:15:24;;;;;;;;;;;;;;;;;;5094045;28;19949;-54
2022/02/12 16:17:50;;;;;;;;;;;;;;;;;;5092932;28;19908;-53
2022/02/12 16:20:16;;;;;;;;;;;;;;;;;;5094292;28;19937;-53
2022/02/12 16:22:42;;;;;;;;;;;;;;;;;;5092736;28;19900;-51
2022/02/12 16:25:08;;;;;;;;;;;;;;;;;;5073824;28;19928;-54
2022/02/12 16:27:34;;;;;;;;;;;;;;;;;;5073551;28;19972;-52
2022/02/12 16:29:59;;;;;;;;;;;;;;;;;;5073032;28;19904;-53
2022/02/12 16:32:25;;;;;;;;;;;;;;;;;;5072979;28;20372;-53
2022/02/12 16:34:51;;;;;;;;;;;;;;;;;;5073700;28;19919;-56
2022/02/12 16:37:17;;;;;;;;;;;;;;;;;;5088531;28;20039;-52
2022/02/12 16:39:43;;;;;;;;;;;;;;;;;;5093206;28;19904;-54
2022/02/12 16:42:09;;;;;;;;;;;;;;;;;;5093406;28;20330;-54
2022/02/12 16:44:35;;;;;;;;;;;;;;;;;;5093753;28;19904;-52